Time;durP1;ratioP1;P1;durP2;ratioP2;P2;SDS_P1;SDS_P2;PMS_P1;PMS_P2;Temp;Humidity;BMP_temperature;BMP_pressure;BME280_temperature;BME280_humidity;BME280_pressure;Samples;Min_cycle;Max_cycle;Signal;HPM_P1;HPM_P2
2022/03/15 00:01:09;;;;;;;13.13;6.45;;;;;;;;;;4972630;28;20073;-74
2022/03/15 00:03:35;;;;;;;11.10;6.80;;;;;;;;;;4952701;28;20064;-74
2022/03/15 00:06:02;;;;;;;13.23;7.10;;;;;;;;;;4974034;23;20062;-82
2022/03/15 00:08:28;;;;;;;13.60;7.63;;;;;;;;;;4958841;28;20039;-83
2022/03/15 00:10:57;;;;;;;11.57;6.70;;;;;;;;;;4957220;28;20038;-82
2022/03/15 00:13:24;;;;;;;10.55;6.60;;;;;;;;;;4959378;28;20755;-82
2022/03/15 00:15:50;;;;;;;11.27;7.32;;;;;;;;;;4959376;28;20081;-82
2022/03/15 00:18:16;;;;;;;11.35;6.88;;;;;;;;;;4957825;28;20038;-83
2022/03/15 00:20:42;;;;;;;12.77;6.53;;;;;;;;;;4959935;28;20120;-83
2022/03/15 00:23:08;;;;;;;11.90;7.00;;;;;;;;;;4959473;28;20043;-83
2022/03/15 00:25:36;;;;;;;12.73;6.90;;;;;;;;;;4954353;28;20781;-83
2022/03/15 00:28:02;;;;;;;13.25;7.22;;;;;;;;;;4940981;28;20046;-82
2022/03/15 00:30:28;;;;;;;14.55;7.95;;;;;;;;;;4950890;29;20692;-82
2022/03/15 00:32:54;;;;;;;13.38;8.15;;;;;;;;;;4951073;28;20055;-82
2022/03/15 00:35:22;;;;;;;17.48;8.98;;;;;;;;;;4954634;28;20081;-82
2022/03/15 00:37:50;;;;;;;13.52;8.52;;;;;;;;;;4955928;28;20042;-82
2022/03/15 00:40:17;;;;;;;16.25;8.07;;;;;;;;;;4952846;29;20046;-83
2022/03/15 00:42:46;;;;;;;15.80;8.70;;;;;;;;;;4954835;28;20078;-83
2022/03/15 00:45:12;;;;;;;18.05;9.40;;;;;;;;;;4941727;28;20042;-83
2022/03/15 00:47:38;;;;;;;16.45;8.85;;;;;;;;;;4948816;28;20077;-82
2022/03/15 00:50:05;;;;;;;16.15;9.43;;;;;;;;;;4956970;28;20504;-82
2022/03/15 00:52:31;;;;;;;15.95;9.57;;;;;;;;;;4955418;28;20106;-83
2022/03/15 00:54:57;;;;;;;14.35;8.45;;;;;;;;;;4941796;28;20469;-82
2022/03/15 00:57:23;;;;;;;15.30;8.35;;;;;;;;;;4958997;28;20093;-82
2022/03/15 00:59:49;;;;;;;16.17;8.75;;;;;;;;;;4958085;28;20500;-82
2022/03/15 01:02:15;;;;;;;19.13;10.25;;;;;;;;;;4958733;28;20039;-83
2022/03/15 01:04:41;;;;;;;15.25;9.20;;;;;;;;;;4974350;28;20039;-83
2022/03/15 01:07:07;;;;;;;16.80;9.05;;;;;;;;;;4958197;28;20058;-83
2022/03/15 01:09:35;;;;;;;17.55;10.13;;;;;;;;;;4958376;28;20102;-83
2022/03/15 01:12:01;;;;;;;17.67;10.20;;;;;;;;;;4958138;28;20133;-83
2022/03/15 01:14:27;;;;;;;15.50;9.15;;;;;;;;;;4957275;28;20046;-82
2022/03/15 01:16:55;;;;;;;16.02;9.63;;;;;;;;;;4958328;28;20031;-83
2022/03/15 01:19:21;;;;;;;14.00;9.68;;;;;;;;;;4958321;28;20050;-83
2022/03/15 01:21:47;;;;;;;15.65;9.85;;;;;;;;;;4955456;28;20043;-83
2022/03/15 01:24:13;;;;;;;15.85;9.27;;;;;;;;;;4961272;28;20039;-83
2022/03/15 01:26:39;;;;;;;13.05;9.75;;;;;;;;;;4958383;28;20050;-83
2022/03/15 01:29:06;;;;;;;17.77;10.57;;;;;;;;;;4954342;28;20053;-83
2022/03/15 01:31:32;;;;;;;16.90;10.45;;;;;;;;;;4957508;28;20129;-82
2022/03/15 01:33:58;;;;;;;17.08;10.80;;;;;;;;;;4958202;28;20054;-83
2022/03/15 01:36:24;;;;;;;15.63;10.65;;;;;;;;;;4957066;28;20045;-83
2022/03/15 01:38:52;;;;;;;16.17;10.77;;;;;;;;;;4957984;28;20400;-83
2022/03/15 01:41:18;;;;;;;23.23;11.48;;;;;;;;;;4958142;28;20142;-83
2022/03/15 01:43:46;;;;;;;17.98;11.18;;;;;;;;;;4950598;28;20054;-83
2022/03/15 01:46:13;;;;;;;17.25;11.77;;;;;;;;;;4941437;28;20417;-83
2022/03/15 01:48:39;;;;;;;20.33;11.82;;;;;;;;;;4960495;28;20054;-83
2022/03/15 01:51:05;;;;;;;18.15;12.20;;;;;;;;;;4957121;28;20050;-83
2022/03/15 01:53:32;;;;;;;17.30;12.02;;;;;;;;;;4954925;28;20051;-83
2022/03/15 01:55:58;;;;;;;18.83;11.85;;;;;;;;;;4957102;28;20429;-83
2022/03/15 01:58:25;;;;;;;13.48;10.85;;;;;;;;;;4956856;28;20460;-83
2022/03/15 02:00:51;;;;;;;18.95;12.10;;;;;;;;;;4973884;28;20086;-83
2022/03/15 02:03:18;;;;;;;17.70;11.60;;;;;;;;;;4957786;28;20089;-83
2022/03/15 02:05:44;;;;;;;16.15;11.10;;;;;;;;;;4956152;28;20063;-83
2022/03/15 02:08:11;;;;;;;15.85;11.38;;;;;;;;;;4957483;28;20098;-83
2022/03/15 02:10:37;;;;;;;18.83;12.30;;;;;;;;;;4956898;28;20039;-83
2022/03/15 02:13:03;;;;;;;18.15;11.65;;;;;;;;;;4957641;28;20465;-82
2022/03/15 02:15:29;;;;;;;18.33;11.50;;;;;;;;;;4957280;28;20089;-83
2022/03/15 02:17:55;;;;;;;14.32;11.23;;;;;;;;;;4954251;28;20043;-83
2022/03/15 02:20:21;;;;;;;23.92;12.98;;;;;;;;;;4973397;28;20054;-83
2022/03/15 02:22:47;;;;;;;18.95;13.68;;;;;;;;;;4957110;28;20121;-83
2022/03/15 02:25:13;;;;;;;21.17;12.07;;;;;;;;;;4956464;28;20602;-83
2022/03/15 02:27:40;;;;;;;15.90;11.75;;;;;;;;;;4956457;28;20089;-83
2022/03/15 02:30:06;;;;;;;15.93;11.73;;;;;;;;;;4973080;28;20174;-83
2022/03/15 02:32:32;;;;;;;16.98;10.93;;;;;;;;;;4939522;28;20038;-83
2022/03/15 02:34:58;;;;;;;14.68;11.02;;;;;;;;;;4941319;28;20070;-83
2022/03/15 02:37:24;;;;;;;11.73;10.45;;;;;;;;;;4950920;29;20061;-83
2022/03/15 02:39:50;;;;;;;15.55;11.65;;;;;;;;;;4952323;28;20042;-83
2022/03/15 02:42:16;;;;;;;14.93;10.73;;;;;;;;;;4956600;28;20384;-83
2022/03/15 02:44:42;;;;;;;17.08;10.90;;;;;;;;;;4956059;28;20108;-83
2022/03/15 02:47:08;;;;;;;16.80;10.70;;;;;;;;;;4955702;28;20039;-83
2022/03/15 02:49:34;;;;;;;14.27;10.65;;;;;;;;;;4976549;28;20109;-83
2022/03/15 02:52:00;;;;;;;15.15;11.18;;;;;;;;;;4958701;28;20481;-83
2022/03/15 02:54:26;;;;;;;13.25;10.77;;;;;;;;;;4953618;28;20507;-82
2022/03/15 02:56:53;;;;;;;16.08;12.35;;;;;;;;;;4943330;28;20117;-83
2022/03/15 02:59:19;;;;;;;14.98;11.95;;;;;;;;;;4958896;28;20034;-83
2022/03/15 03:01:46;;;;;;;17.20;12.00;;;;;;;;;;4960636;28;20038;-82
2022/03/15 03:04:12;;;;;;;17.92;12.60;;;;;;;;;;4960578;28;20046;-83
2022/03/15 03:06:41;;;;;;;18.75;13.57;;;;;;;;;;4957859;28;20137;-83
2022/03/15 03:09:07;;;;;;;24.08;14.45;;;;;;;;;;4944095;28;20062;-83
2022/03/15 03:11:33;;;;;;;19.88;13.13;;;;;;;;;;4949954;28;20088;-82
2022/03/15 03:14:00;;;;;;;19.92;14.57;;;;;;;;;;4975774;28;20074;-83
2022/03/15 03:16:27;;;;;;;24.95;14.52;;;;;;;;;;4956626;28;20077;-83
2022/03/15 03:18:57;;;;;;;22.92;14.27;;;;;;;;;;4960854;28;20046;-83
2022/03/15 03:21:25;;;;;;;19.67;14.57;;;;;;;;;;4959127;28;20054;-83
2022/03/15 03:23:53;;;;;;;19.88;14.10;;;;;;;;;;4960097;28;20053;-83
2022/03/15 03:26:19;;;;;;;23.65;15.13;;;;;;;;;;4960343;28;20051;-83
2022/03/15 03:28:45;;;;;;;20.05;14.02;;;;;;;;;;4960881;28;20421;-83
2022/03/15 03:31:11;;;;;;;21.58;13.95;;;;;;;;;;4954959;29;20047;-83
2022/03/15 03:33:38;;;;;;;17.33;12.60;;;;;;;;;;4956567;28;20055;-83
2022/03/15 03:36:05;;;;;;;20.42;13.82;;;;;;;;;;4959989;28;20150;-83
2022/03/15 03:38:31;;;;;;;18.70;13.00;;;;;;;;;;4955622;28;20042;-83
2022/03/15 03:40:57;;;;;;;21.60;14.05;;;;;;;;;;4958696;28;20569;-83
2022/03/15 03:43:24;;;;;;;16.38;12.68;;;;;;;;;;4959904;28;20038;-83
2022/03/15 03:45:50;;;;;;;18.33;12.77;;;;;;;;;;4959788;28;20085;-83
2022/03/15 03:48:16;;;;;;;21.85;13.63;;;;;;;;;;4958695;28;20050;-83
2022/03/15 03:50:43;;;;;;;20.17;13.40;;;;;;;;;;4959516;28;20039;-83
2022/03/15 03:53:09;;;;;;;15.75;13.27;;;;;;;;;;4959102;28;20498;-83
2022/03/15 03:55:35;;;;;;;21.48;13.18;;;;;;;;;;4943110;28;20034;-83
2022/03/15 03:58:01;;;;;;;18.08;13.32;;;;;;;;;;4958799;28;20055;-83
2022/03/15 04:00:27;;;;;;;19.58;13.98;;;;;;;;;;4957762;28;20039;-83
2022/03/15 04:02:55;;;;;;;17.55;12.35;;;;;;;;;;4957691;28;20043;-83
2022/03/15 04:05:21;;;;;;;17.85;13.25;;;;;;;;;;4939825;28;20038;-83
2022/03/15 04:07:47;;;;;;;20.63;13.27;;;;;;;;;;4949830;28;20098;-83
2022/03/15 04:10:13;;;;;;;16.55;12.95;;;;;;;;;;4973889;28;20503;-83
2022/03/15 04:12:39;;;;;;;18.95;12.60;;;;;;;;;;4959171;28;20050;-83
2022/03/15 04:15:06;;;;;;;17.70;13.02;;;;;;;;;;4959202;28;20046;-83
2022/03/15 04:17:32;;;;;;;20.73;13.23;;;;;;;;;;4955841;28;20054;-83
2022/03/15 04:19:58;;;;;;;19.17;13.55;;;;;;;;;;4943388;28;20049;-83
2022/03/15 04:22:24;;;;;;;18.08;13.52;;;;;;;;;;4943532;28;20043;-83
2022/03/15 04:24:50;;;;;;;20.77;14.15;;;;;;;;;;4941130;28;20061;-83
2022/03/15 04:27:16;;;;;;;21.33;13.15;;;;;;;;;;4959051;28;20548;-83
2022/03/15 04:29:43;;;;;;;23.80;13.95;;;;;;;;;;4953849;28;20043;-83
2022/03/15 04:32:09;;;;;;;18.98;13.25;;;;;;;;;;4957258;28;20122;-83
2022/03/15 04:34:35;;;;;;;22.92;13.27;;;;;;;;;;4959363;28;20062;-83
2022/03/15 04:37:01;;;;;;;19.63;13.13;;;;;;;;;;4959155;28;20049;-83
2022/03/15 04:39:27;;;;;;;18.67;12.73;;;;;;;;;;4956354;28;20389;-83
2022/03/15 04:41:54;;;;;;;24.55;13.85;;;;;;;;;;4942556;28;20547;-83
2022/03/15 04:44:20;;;;;;;17.40;12.50;;;;;;;;;;4969411;28;20122;-83
2022/03/15 04:46:46;;;;;;;21.42;13.00;;;;;;;;;;4958802;28;20125;-83
2022/03/15 04:49:13;;;;;;;16.10;11.02;;;;;;;;;;4957625;28;20528;-83
2022/03/15 04:51:39;;;;;;;15.38;10.98;;;;;;;;;;4959171;28;20043;-83
2022/03/15 04:54:05;;;;;;;20.30;11.63;;;;;;;;;;4951760;28;20485;-83
2022/03/15 04:56:31;;;;;;;19.50;12.90;;;;;;;;;;4946893;28;20477;-83
2022/03/15 04:58:57;;;;;;;19.75;12.95;;;;;;;;;;4959004;28;20070;-83
2022/03/15 05:01:23;;;;;;;23.17;13.65;;;;;;;;;;4938995;28;20039;-83
2022/03/15 05:03:49;;;;;;;17.98;12.60;;;;;;;;;;4956403;28;20042;-83
2022/03/15 05:06:16;;;;;;;21.48;13.75;;;;;;;;;;4954520;29;20134;-83
2022/03/15 05:08:42;;;;;;;20.95;12.63;;;;;;;;;;4954941;29;20086;-83
2022/03/15 05:11:08;;;;;;;20.33;13.38;;;;;;;;;;4952322;28;20079;-83
2022/03/15 05:13:35;;;;;;;27.45;16.27;;;;;;;;;;4955190;29;20525;-83
2022/03/15 05:16:01;;;;;;;25.02;15.18;;;;;;;;;;4954678;29;20083;-83
2022/03/15 05:18:27;;;;;;;22.23;14.02;;;;;;;;;;4938557;29;20083;-83
2022/03/15 05:20:53;;;;;;;23.02;14.05;;;;;;;;;;4954698;29;20041;-83
2022/03/15 05:23:18;;;;;;;21.63;15.20;;;;;;;;;;4955236;29;20486;-83
2022/03/15 05:25:44;;;;;;;21.20;14.10;;;;;;;;;;4954931;29;20043;-83
2022/03/15 05:28:10;;;;;;;24.13;14.73;;;;;;;;;;4954530;29;20090;-83
2022/03/15 05:30:37;;;;;;;22.17;15.10;;;;;;;;;;4955023;29;20071;-83
2022/03/15 05:33:03;;;;;;;26.73;15.73;;;;;;;;;;4953530;29;20528;-83
2022/03/15 05:35:29;;;;;;;27.63;15.85;;;;;;;;;;4954906;29;20464;-83
2022/03/15 05:37:55;;;;;;;28.25;17.50;;;;;;;;;;4941086;29;20078;-83
2022/03/15 05:40:21;;;;;;;23.85;15.60;;;;;;;;;;4953854;29;20086;-83
2022/03/15 05:42:47;;;;;;;27.95;15.77;;;;;;;;;;4953972;29;20071;-83
2022/03/15 05:45:13;;;;;;;24.10;15.93;;;;;;;;;;4951526;29;20039;-83
2022/03/15 05:47:39;;;;;;;23.38;15.55;;;;;;;;;;4954200;29;20421;-83
2022/03/15 05:50:06;;;;;;;23.90;15.45;;;;;;;;;;4953016;29;20062;-83
2022/03/15 05:52:32;;;;;;;28.25;15.70;;;;;;;;;;4954994;29;20047;-83
2022/03/15 05:54:58;;;;;;;33.97;17.98;;;;;;;;;;4938350;29;20487;-83
2022/03/15 05:57:24;;;;;;;27.63;17.13;;;;;;;;;;4954600;29;20039;-83
2022/03/15 05:59:50;;;;;;;30.85;19.05;;;;;;;;;;4954138;29;20039;-83
2022/03/15 06:02:17;;;;;;;31.05;18.70;;;;;;;;;;4934875;29;20046;-83
2022/03/15 06:04:43;;;;;;;31.48;17.75;;;;;;;;;;4950890;29;20436;-83
2022/03/15 06:07:09;;;;;;;27.13;17.55;;;;;;;;;;4953357;29;20413;-83
2022/03/15 06:09:35;;;;;;;26.48;17.23;;;;;;;;;;4932805;29;20047;-83
2022/03/15 06:12:02;;;;;;;24.02;16.00;;;;;;;;;;4945396;29;20114;-83
2022/03/15 06:14:28;;;;;;;28.73;17.77;;;;;;;;;;4953357;29;20082;-84
2022/03/15 06:16:54;;;;;;;27.85;18.55;;;;;;;;;;4953933;29;20142;-84
2022/03/15 06:19:20;;;;;;;29.10;18.65;;;;;;;;;;4951761;29;20462;-83
2022/03/15 06:21:46;;;;;;;35.95;19.38;;;;;;;;;;4935706;29;20035;-84
2022/03/15 06:24:12;;;;;;;26.98;18.88;;;;;;;;;;4946246;28;20665;-83
2022/03/15 06:26:39;;;;;;;31.05;18.33;;;;;;;;;;4932958;29;20061;-83
2022/03/15 06:29:05;;;;;;;31.33;18.27;;;;;;;;;;4930676;29;20042;-83
2022/03/15 06:31:32;;;;;;;29.27;18.67;;;;;;;;;;4934393;29;20148;-83
2022/03/15 06:33:58;;;;;;;30.42;18.30;;;;;;;;;;4950132;29;20047;-83
2022/03/15 06:36:24;;;;;;;30.83;18.55;;;;;;;;;;4951649;29;20050;-83
2022/03/15 06:38:50;;;;;;;27.23;18.80;;;;;;;;;;4946964;29;20047;-83
2022/03/15 06:41:17;;;;;;;37.55;21.23;;;;;;;;;;4942582;29;20039;-83
2022/03/15 06:43:43;;;;;;;32.13;19.02;;;;;;;;;;4949020;29;20137;-83
2022/03/15 06:46:09;;;;;;;27.63;19.02;;;;;;;;;;4949608;29;20054;-83
2022/03/15 06:48:36;;;;;;;29.63;18.73;;;;;;;;;;4929874;29;20367;-84
2022/03/15 06:51:05;;;;;;;36.55;19.40;;;;;;;;;;4952648;29;20078;-84
2022/03/15 06:53:31;;;;;;;31.70;20.08;;;;;;;;;;4936773;29;20042;-83
2022/03/15 06:55:58;;;;;;;30.25;20.48;;;;;;;;;;4943769;29;20564;-83
2022/03/15 06:58:24;;;;;;;35.00;22.73;;;;;;;;;;4951636;29;20401;-83
2022/03/15 07:00:50;;;;;;;35.00;21.05;;;;;;;;;;4953390;29;20370;-84
2022/03/15 07:03:16;;;;;;;35.90;22.48;;;;;;;;;;4954087;29;20241;-83
2022/03/15 07:05:44;;;;;;;42.75;23.23;;;;;;;;;;4952829;28;20138;-83
2022/03/15 07:08:10;;;;;;;37.08;22.42;;;;;;;;;;4955805;28;20047;-83
2022/03/15 07:10:36;;;;;;;37.60;22.02;;;;;;;;;;4950486;29;20068;-83
2022/03/15 07:13:02;;;;;;;28.95;19.10;;;;;;;;;;4946398;29;20039;-83
2022/03/15 07:15:28;;;;;;;33.38;20.55;;;;;;;;;;4953410;29;20050;-83
2022/03/15 07:17:55;;;;;;;37.80;22.02;;;;;;;;;;4952975;29;20046;-81
2022/03/15 07:20:22;;;;;;;34.95;21.38;;;;;;;;;;4952459;29;20069;-83
2022/03/15 07:22:48;;;;;;;32.80;21.42;;;;;;;;;;4953818;29;20350;-83
2022/03/15 07:25:14;;;;;;;38.83;21.30;;;;;;;;;;4937382;29;20043;-83
2022/03/15 07:27:40;;;;;;;38.53;21.77;;;;;;;;;;4935501;29;20039;-83
2022/03/15 07:30:07;;;;;;;37.03;22.38;;;;;;;;;;4932709;29;20102;-83
2022/03/15 07:32:33;;;;;;;37.03;21.08;;;;;;;;;;4935274;29;20051;-82
2022/03/15 07:34:59;;;;;;;34.33;21.63;;;;;;;;;;4943716;29;20070;-83
2022/03/15 07:37:25;;;;;;;36.88;21.92;;;;;;;;;;4940321;29;20077;-83
2022/03/15 07:39:51;;;;;;;33.53;21.08;;;;;;;;;;4940539;29;20043;-83
2022/03/15 07:42:17;;;;;;;30.85;19.80;;;;;;;;;;4954538;29;20154;-83
2022/03/15 07:44:44;;;;;;;36.63;23.55;;;;;;;;;;4924243;29;20040;-82
2022/03/15 07:47:10;;;;;;;43.30;26.30;;;;;;;;;;4951949;29;20074;-83
2022/03/15 07:49:37;;;;;;;37.22;23.83;;;;;;;;;;4942169;29;20047;-82
2022/03/15 07:52:03;;;;;;;30.52;21.85;;;;;;;;;;4953422;28;20492;-82
2022/03/15 07:54:29;;;;;;;35.95;22.90;;;;;;;;;;4945187;29;20126;-83
2022/03/15 07:56:55;;;;;;;40.72;25.40;;;;;;;;;;4935868;29;20046;-84
2022/03/15 07:59:21;;;;;;;38.70;23.70;;;;;;;;;;4956106;29;20105;-83
2022/03/15 08:01:47;;;;;;;33.15;22.70;;;;;;;;;;4954686;29;20178;-83
2022/03/15 08:04:14;;;;;;;35.25;22.02;;;;;;;;;;4952295;29;20087;-83
2022/03/15 08:06:40;;;;;;;39.38;22.92;;;;;;;;;;4939886;29;20066;-83
2022/03/15 08:09:06;;;;;;;36.20;24.23;;;;;;;;;;4955583;29;20123;-82
2022/03/15 08:11:33;;;;;;;36.67;24.40;;;;;;;;;;4939592;29;20138;-82
2022/03/15 08:13:59;;;;;;;42.35;27.20;;;;;;;;;;4946777;29;20056;-83
2022/03/15 08:16:25;;;;;;;21.40;13.57;;;;;;;;;;4955206;28;20046;-83
2022/03/15 08:18:51;;;;;;;42.08;26.73;;;;;;;;;;4955280;29;20043;-84
2022/03/15 08:21:18;;;;;;;36.22;25.52;;;;;;;;;;4952554;29;20410;-82
2022/03/15 08:23:45;;;;;;;40.00;27.95;;;;;;;;;;4951959;29;20035;-83
2022/03/15 08:26:11;;;;;;;47.58;30.58;;;;;;;;;;4947446;29;20063;-83
2022/03/15 08:28:37;;;;;;;41.33;29.58;;;;;;;;;;4947076;29;20492;-83
2022/03/15 08:31:03;;;;;;;45.63;29.23;;;;;;;;;;4938282;29;20050;-83
2022/03/15 08:33:29;;;;;;;38.95;28.05;;;;;;;;;;4953733;29;20054;-84
2022/03/15 08:35:55;;;;;;;41.58;28.67;;;;;;;;;;4952924;29;20039;-83
2022/03/15 08:38:22;;;;;;;42.17;28.63;;;;;;;;;;4951888;29;20043;-83
2022/03/15 08:40:49;;;;;;;40.55;27.17;;;;;;;;;;4932363;29;20044;-84
2022/03/15 08:43:15;;;;;;;41.55;29.85;;;;;;;;;;4933593;29;20763;-84
2022/03/15 08:45:41;;;;;;;32.05;21.80;;;;;;;;;;4933118;29;20054;-83
2022/03/15 08:48:07;;;;;;;29.48;20.52;;;;;;;;;;4937406;29;20078;-82
2022/03/15 08:50:34;;;;;;;33.75;25.25;;;;;;;;;;4940548;29;20519;-83
2022/03/15 08:53:00;;;;;;;34.40;22.98;;;;;;;;;;4950213;29;20130;-82
2022/03/15 08:55:28;;;;;;;37.05;22.73;;;;;;;;;;4954179;29;20616;-83
2022/03/15 08:57:54;;;;;;;34.15;23.77;;;;;;;;;;4947531;29;20044;-83
2022/03/15 09:00:20;;;;;;;36.45;26.48;;;;;;;;;;4950721;29;20075;-82
2022/03/15 09:02:46;;;;;;;37.25;25.77;;;;;;;;;;4953361;29;20047;-82
2022/03/15 09:05:12;;;;;;;37.38;26.55;;;;;;;;;;4937980;29;20374;-83
2022/03/15 09:07:39;;;;;;;43.42;26.23;;;;;;;;;;4958294;28;20816;-83
2022/03/15 09:10:06;;;;;;;34.90;27.27;;;;;;;;;;4953121;29;20047;-83
2022/03/15 09:12:32;;;;;;;34.28;26.23;;;;;;;;;;4953530;29;20043;-82
2022/03/15 09:14:58;;;;;;;40.42;26.98;;;;;;;;;;4953968;29;20047;-82
2022/03/15 09:17:24;;;;;;;41.22;28.25;;;;;;;;;;4953237;29;20047;-82
2022/03/15 09:19:52;;;;;;;40.28;28.02;;;;;;;;;;4925511;29;20060;-82
2022/03/15 09:22:19;;;;;;;40.47;29.25;;;;;;;;;;4935988;29;20077;-82
2022/03/15 09:24:45;;;;;;;39.10;30.05;;;;;;;;;;4951109;29;20619;-82
2022/03/15 09:27:12;;;;;;;39.92;28.92;;;;;;;;;;4944848;28;20126;-82
2022/03/15 09:29:39;;;;;;;36.08;28.42;;;;;;;;;;4947733;29;20050;-82
2022/03/15 09:32:06;;;;;;;33.17;27.85;;;;;;;;;;4936104;29;20051;-83
2022/03/15 09:34:33;;;;;;;36.20;27.40;;;;;;;;;;4953292;29;20062;-82
2022/03/15 09:36:59;;;;;;;36.35;27.65;;;;;;;;;;4951945;29;20114;-82
2022/03/15 09:39:25;;;;;;;35.35;28.15;;;;;;;;;;4952831;29;20039;-82
2022/03/15 09:41:54;;;;;;;35.83;27.92;;;;;;;;;;4931777;29;20047;-82
2022/03/15 09:44:20;;;;;;;33.15;26.35;;;;;;;;;;4946252;29;20497;-82
2022/03/15 09:46:51;;;;;;;36.38;26.88;;;;;;;;;;4939153;29;20095;-82
2022/03/15 09:49:18;;;;;;;35.63;27.60;;;;;;;;;;4952610;29;20043;-82
2022/03/15 09:51:45;;;;;;;35.40;26.92;;;;;;;;;;4930024;29;20045;-82
2022/03/15 09:54:12;;;;;;;32.22;26.08;;;;;;;;;;4930108;29;20046;-82
2022/03/15 09:56:39;;;;;;;32.50;25.95;;;;;;;;;;4930897;29;20035;-82
2022/03/15 09:59:12;;;;;;;33.88;24.77;;;;;;;;;;4936226;29;20035;-82
2022/03/15 10:01:40;;;;;;;34.42;25.23;;;;;;;;;;4952928;29;20043;-82
2022/03/15 10:04:06;;;;;;;29.85;23.85;;;;;;;;;;4952705;29;20047;-82
2022/03/15 10:06:32;;;;;;;30.48;24.17;;;;;;;;;;4951535;28;20197;-82
2022/03/15 10:08:58;;;;;;;29.92;23.48;;;;;;;;;;4933326;29;20121;-82
2022/03/15 10:11:25;;;;;;;27.33;22.80;;;;;;;;;;4945383;29;20549;-82
2022/03/15 10:13:51;;;;;;;34.63;25.70;;;;;;;;;;4946656;29;20109;-82
2022/03/15 10:16:17;;;;;;;31.42;24.00;;;;;;;;;;4926651;29;20039;-82
2022/03/15 10:18:53;;;;;;;27.95;22.98;;;;;;;;;;4942570;28;20050;-82
2022/03/15 10:21:21;;;;;;;29.42;22.42;;;;;;;;;;4936634;28;20043;-81
2022/03/15 10:23:47;;;;;;;32.33;23.15;;;;;;;;;;4943884;28;20054;-81
2022/03/15 10:26:21;;;;;;;29.33;22.90;;;;;;;;;;4946552;29;20050;-82
2022/03/15 10:28:47;;;;;;;23.17;19.15;;;;;;;;;;4927379;29;20490;-82
2022/03/15 10:31:15;;;;;;;28.77;23.88;;;;;;;;;;4948875;29;20544;-82
2022/03/15 10:33:41;;;;;;;28.38;23.70;;;;;;;;;;4938371;28;20039;-82
2022/03/15 10:36:16;;;;;;;32.53;26.05;;;;;;;;;;4943510;28;20046;-82
2022/03/15 10:38:50;;;;;;;26.83;22.02;;;;;;;;;;4945478;29;20051;-82
2022/03/15 10:41:16;;;;;;;30.98;23.83;;;;;;;;;;4945741;28;20600;-82
2022/03/15 10:43:43;;;;;;;27.10;21.10;;;;;;;;;;4942493;29;20043;-82
2022/03/15 10:46:10;;;;;;;27.30;22.23;;;;;;;;;;4943550;29;20490;-82
2022/03/15 10:48:37;;;;;;;28.83;21.92;;;;;;;;;;4928517;29;20066;-82
2022/03/15 10:51:06;;;;;;;28.27;20.98;;;;;;;;;;4942628;29;20544;-82
2022/03/15 10:53:38;;;;;;;27.98;22.02;;;;;;;;;;4949945;29;20039;-83
2022/03/15 10:56:04;;;;;;;;;;;;;;;;;;4951867;29;20067;-84
2022/03/15 10:58:30;;;;;;;27.15;22.17;;;;;;;;;;4951436;29;19973;-84
2022/03/15 11:00:56;;;;;;;28.67;22.60;;;;;;;;;;4926034;29;20564;-83
2022/03/15 11:03:25;;;;;;;24.52;21.20;;;;;;;;;;4950618;28;20047;-82
2022/03/15 11:05:55;;;;;;;26.25;22.30;;;;;;;;;;4949601;28;20429;-82
2022/03/15 11:08:21;;;;;;;26.33;21.13;;;;;;;;;;4932699;28;20043;-82
2022/03/15 11:10:50;;;;;;;28.70;22.50;;;;;;;;;;4956079;29;20134;-83
2022/03/15 11:13:17;;;;;;;26.90;21.15;;;;;;;;;;4956753;29;20076;-83
2022/03/15 11:15:44;;;;;;;25.80;20.73;;;;;;;;;;4949243;29;20039;-82
2022/03/15 11:18:11;;;;;;;23.55;19.55;;;;;;;;;;4953901;29;20138;-82
2022/03/15 11:20:38;;;;;;;26.15;20.23;;;;;;;;;;4956583;29;20061;-82
2022/03/15 11:23:07;;;;;;;26.13;19.88;;;;;;;;;;4954556;29;20047;-82
2022/03/15 11:25:41;;;;;;;24.42;21.45;;;;;;;;;;4939761;29;20457;-82
2022/03/15 11:28:15;;;;;;;23.83;18.92;;;;;;;;;;4955629;29;20043;-82
2022/03/15 11:30:42;;;;;;;23.17;19.60;;;;;;;;;;4955825;29;20400;-82
2022/03/15 11:33:09;;;;;;;24.98;21.75;;;;;;;;;;4956345;29;20465;-82
2022/03/15 11:35:35;;;;;;;22.88;19.80;;;;;;;;;;4939725;29;20047;-82
2022/03/15 11:38:04;;;;;;;24.77;19.75;;;;;;;;;;4956384;29;20046;-82
2022/03/15 11:40:31;;;;;;;26.38;21.23;;;;;;;;;;4938724;29;20118;-82
2022/03/15 11:43:17;;;;;;;25.88;20.08;;;;;;;;;;4955351;29;20079;-80
2022/03/15 11:45:45;;;;;;;23.60;18.85;;;;;;;;;;4937871;29;20052;-81
2022/03/15 11:48:37;;;;;;;24.95;18.48;;;;;;;;;;4937237;29;20055;-80
2022/03/15 11:51:03;;;;;;;;;;;;;;;;;;4937103;29;20082;-81
2022/03/15 11:53:36;;;;;;;20.92;17.40;;;;;;;;;;4954050;29;19919;-81
2022/03/15 11:56:02;;;;;;;21.40;17.73;;;;;;;;;;4936680;29;20043;-81
2022/03/15 11:58:29;;;;;;;27.65;18.77;;;;;;;;;;4955660;29;20049;-81
2022/03/15 12:00:57;;;;;;;22.65;19.08;;;;;;;;;;4938324;29;20051;-81
2022/03/15 12:03:24;;;;;;;23.85;19.05;;;;;;;;;;4939078;29;20494;-81
2022/03/15 12:05:50;;;;;;;22.17;17.65;;;;;;;;;;4938810;29;20521;-81
2022/03/15 12:08:18;;;;;;;27.23;20.08;;;;;;;;;;4954441;29;20578;-81
2022/03/15 12:10:50;;;;;;;23.75;19.45;;;;;;;;;;4953672;29;20043;-80
2022/03/15 12:13:16;;;;;;;;;;;;;;;;;;4952876;29;20039;-81
2022/03/15 12:15:44;;;;;;;21.75;15.98;;;;;;;;;;4954807;29;20447;-81
2022/03/15 12:21:07;;;;;;;19.95;16.33;;;;;;;;;;4964504;23;20480;-74
2022/03/15 12:23:42;;;;;;;19.17;15.43;;;;;;;;;;4948418;28;20059;-75
2022/03/15 12:26:22;;;;;;;21.60;16.30;;;;;;;;;;4952419;28;20125;-74
2022/03/15 12:29:01;;;;;;;21.23;14.93;;;;;;;;;;4951621;28;20039;-74
2022/03/15 12:31:38;;;;;;;18.33;14.93;;;;;;;;;;4956696;28;20048;-74
2022/03/15 12:34:06;;;;;;;20.60;14.77;;;;;;;;;;4972255;28;20193;-75
2022/03/15 12:36:36;;;;;;;18.00;14.00;;;;;;;;;;4969681;28;20141;-74
2022/03/15 12:39:12;;;;;;;17.60;14.02;;;;;;;;;;4970114;28;20093;-74
2022/03/15 12:41:39;;;;;;;16.25;12.88;;;;;;;;;;4965347;28;20035;-74
2022/03/15 12:44:06;;;;;;;16.15;12.10;;;;;;;;;;4970651;28;20354;-74
2022/03/15 12:46:32;;;;;;;17.13;12.65;;;;;;;;;;4967869;28;20057;-74
2022/03/15 12:49:17;;;;;;;12.73;11.20;;;;;;;;;;4972082;28;20046;-74
2022/03/15 12:51:45;;;;;;;16.08;11.70;;;;;;;;;;4971861;28;20039;-74
2022/03/15 12:54:12;;;;;;;16.25;11.10;;;;;;;;;;4971607;28;20122;-74
2022/03/15 12:56:42;;;;;;;15.05;11.30;;;;;;;;;;4963129;28;20377;-75
2022/03/15 12:59:15;;;;;;;15.38;11.55;;;;;;;;;;4971570;28;20050;-75
2022/03/15 13:01:46;;;;;;;14.02;10.98;;;;;;;;;;4969392;28;21049;-74
2022/03/15 13:04:12;;;;;;;14.35;10.40;;;;;;;;;;4970664;28;20105;-74
2022/03/15 13:06:41;;;;;;;13.30;11.10;;;;;;;;;;4970836;28;20559;-74
2022/03/15 13:09:07;;;;;;;15.70;11.05;;;;;;;;;;4968885;28;20058;-74
2022/03/15 13:11:43;;;;;;;15.38;10.05;;;;;;;;;;4950270;28;20050;-75
2022/03/15 13:14:09;;;;;;;14.38;10.23;;;;;;;;;;4967150;28;20039;-75
2022/03/15 13:16:35;;;;;;;13.68;8.55;;;;;;;;;;4967698;28;20049;-74
2022/03/15 13:19:01;;;;;;;13.20;8.63;;;;;;;;;;4968159;28;20401;-74
2022/03/15 13:21:33;;;;;;;12.80;7.45;;;;;;;;;;4961455;28;20047;-74
2022/03/15 13:24:07;;;;;;;11.38;8.15;;;;;;;;;;4966850;28;20129;-74
2022/03/15 13:26:33;;;;;;;14.13;8.05;;;;;;;;;;4964017;28;20496;-74
2022/03/15 13:29:00;;;;;;;11.88;8.40;;;;;;;;;;4966743;28;20105;-74
2022/03/15 13:31:26;;;;;;;14.27;8.27;;;;;;;;;;4960953;28;20047;-74
2022/03/15 13:33:58;;;;;;;11.85;8.85;;;;;;;;;;4964187;28;20099;-74
2022/03/15 13:36:25;;;;;;;12.38;8.75;;;;;;;;;;4966255;28;20054;-75
2022/03/15 13:38:54;;;;;;;12.05;8.57;;;;;;;;;;4965016;28;20050;-75
2022/03/15 13:41:21;;;;;;;12.45;8.07;;;;;;;;;;4968518;28;20038;-74
2022/03/15 13:43:47;;;;;;;12.32;8.15;;;;;;;;;;4966617;28;20126;-74
2022/03/15 13:46:15;;;;;;;11.85;7.47;;;;;;;;;;4966866;28;20035;-75
2022/03/15 13:48:42;;;;;;;12.38;8.45;;;;;;;;;;4952306;28;20081;-74
2022/03/15 13:51:10;;;;;;;16.25;9.25;;;;;;;;;;4963857;28;20051;-74
2022/03/15 13:53:40;;;;;;;15.18;11.13;;;;;;;;;;4968368;28;20101;-75
2022/03/15 13:56:07;;;;;;;13.98;10.80;;;;;;;;;;4959342;28;20057;-74
2022/03/15 13:58:34;;;;;;;16.58;11.30;;;;;;;;;;4964649;28;20050;-74
2022/03/15 14:01:01;;;;;;;16.25;11.25;;;;;;;;;;4964361;28;20101;-74
2022/03/15 14:03:32;;;;;;;15.32;11.15;;;;;;;;;;4965425;28;20041;-74
2022/03/15 14:06:08;;;;;;;15.67;11.60;;;;;;;;;;4966641;28;20049;-74
2022/03/15 14:08:53;;;;;;;15.73;11.52;;;;;;;;;;4969455;28;20070;-74
2022/03/15 14:11:27;;;;;;;15.73;11.57;;;;;;;;;;4961471;28;20043;-74
2022/03/15 14:13:57;;;;;;;13.70;10.43;;;;;;;;;;4964623;28;20053;-74
2022/03/15 14:16:52;;;;;;;15.65;11.65;;;;;;;;;;4970179;28;20109;-74
2022/03/15 14:19:19;;;;;;;20.15;12.48;;;;;;;;;;4920801;28;20049;-74
2022/03/15 14:21:53;;;;;;;14.50;11.73;;;;;;;;;;4956879;28;21498;-74
2022/03/15 14:24:21;;;;;;;14.88;12.27;;;;;;;;;;4961722;28;20444;-73